Meteo Giornale » Osservazioni meteo Francia » Lione-Bron

ore: 08:00 - Osservazioni Meteo Lione-Bron
Lat. 45° 43' N Lon. 4° 57' E Alt. 200 metri s.l.m.

sereno

17 °C

Sereno

Temp. 24 Ore

0 °C

28 °C

Nord

0 Km/h

Dew point 13 °C

Umidità 77 %

Visibilità  10 Km

Il sole sorge alle ore 07:02

Il sole tramonta alle ore 20:17

Data e Ora Cielo e Fenomeni T °C DP °C Um. % Pres. hPa Vis. km Vento km/h
Oggi h: 08:00 sereno Sereno 17 13 77 1021 10 N 0
Oggi h: 07:30 sereno Sereno 15 12 82 1021 10 N 3.7
Oggi h: 07:00 sereno Sereno 15 12 82 1021 10 N 5.5
Oggi h: 06:30 sereno Sereno 15 13 87 1021 10 N 3.7
Oggi h: 06:00 sereno Sereno 0 0 93 1021 10 S/SE 5.5
Oggi h: 05:30 sereno Sereno 15 13 87 1021 10 N 3.7
Oggi h: 05:00 sereno Sereno 15 12 82 1021 10 N 1.8
Oggi h: 04:30 sereno Sereno 15 13 87 1021 10 N 3.7
Oggi h: 04:00 sereno Sereno 16 13 82 1021 10 N 3.7
Oggi h: 03:30 sereno Sereno 16 12 77 1020 10 N 1.8
Oggi h: 03:00 sereno Sereno 16 12 77 1021 10 N 3.7
Oggi h: 02:30 sereno Sereno 17 13 77 1021 10 N 5.5
Oggi h: 02:00 sereno Sereno 17 13 77 1021 10 N 0
Oggi h: 01:30 sereno Sereno 17 13 77 1020 10 N 1.8
Oggi h: 01:00 sereno Sereno 18 12 67 1020 10 N 5.5
Oggi h: 00:30 sereno Sereno 19 12 63 1020 10 N 3.7
Oggi h: 00:00 sereno Sereno 19 12 63 1020 10 N 3.7
Ieri h: 23:30 sereno Sereno 19 12 63 1020 10 N 3.7
Ieri h: 23:00 sereno Sereno 20 12 59 1020 10 N 3.7
Ieri h: 22:30 sereno Sereno 21 11 52 1020 10 NO 7.4
Ieri h: 22:00 sereno Sereno 22 11 49 1020 10 N 3.7
Ieri h: 21:30 sereno Sereno 23 10 43 1020 10 N 5.5
Ieri h: 21:00 sereno Sereno 24 11 43 1020 10 N 7.4
Ieri h: 20:30 sereno Sereno 25 11 41 1020 10 N 5.5
Ieri h: 20:00 sereno Sereno 26 11 39 1019 10 N/NE 9.3
Ieri h: 19:30 sereno Sereno 26 10 36 1019 10 NE 13
Ieri h: 19:00 sereno Sereno 27 10 34 1019 10 N/NE 13
Ieri h: 18:30 sereno Sereno 28 10 32 1019 10 N/NE 14.8
Ieri h: 18:00 sereno Sereno 28 10 32 1019 10 N/NE 13
Ieri h: 17:30 sereno Sereno 27 10 34 1020 10 N 9.3
Ieri h: 17:00 sereno Sereno 27 9 32 1020 10 N 7.4
Ieri h: 16:30 sereno Sereno 28 10 32 1020 10 N 11.1
Ieri h: 16:00 sereno Sereno 27 10 34 1020 10 N 9.3
Ieri h: 15:30 sereno Sereno 27 10 34 1020 10 N 11.1
Ieri h: 15:00 sereno Sereno 27 10 34 1021 10 N 11.1
Ieri h: 14:30 sereno Sereno 27 11 36 1021 10 NO 14.8
Ieri h: 14:00 sereno Sereno 27 11 36 1021 10 N 11.1
Ieri h: 13:30 sereno Sereno 26 12 41 1021 10 N/NO 11.1
Ieri h: 13:00 poco_nuvoloso Poco Nuvoloso 0 0 41 1021 10 N/NO 7.4
Ieri h: 12:30 sereno Sereno 0 0 43 1022 10 N 9.3
Ieri h: 12:00 sereno Sereno 24 14 53 1022 10 N 9.3
Ieri h: 11:30 sereno Sereno 24 14 53 1022 10 N 11.1
Ieri h: 11:00 sereno Sereno 23 14 56 1022 10 N 11.1
Ieri h: 10:30 sereno Sereno 22 14 60 1022 10 N/NO 7.4
Ieri h: 10:00 sereno Sereno 22 13 56 1022 10 N 5.5
Ieri h: 09:30 sereno Sereno 21 12 56 1022 10 N 3.7
Ieri h: 09:00 sereno Sereno 20 12 59 1022 10 N 0